sensor_id;sensor_type;location;lat;lon;timestamp;temperature;humidity
4564;DHT22;2294;51.818;8.484;2023-08-01T00:01:19;26.20;99.90
4564;DHT22;2294;51.818;8.484;2023-08-01T00:03:46;26.20;99.90
4564;DHT22;2294;51.818;8.484;2023-08-01T00:06:13;26.30;99.90
4564;DHT22;2294;51.818;8.484;2023-08-01T00:08:40;26.30;99.90
4564;DHT22;2294;51.818;8.484;2023-08-01T00:11:08;26.30;99.90
4564;DHT22;2294;51.818;8.484;2023-08-01T00:13:35;26.30;99.90
4564;DHT22;2294;51.818;8.484;2023-08-01T00:16:02;26.30;99.90
4564;DHT22;2294;51.818;8.484;2023-08-01T00:18:29;26.20;99.90
4564;DHT22;2294;51.818;8.484;2023-08-01T00:20:56;26.10;99.90
4564;DHT22;2294;51.818;8.484;2023-08-01T00:23:24;26.30;99.90
4564;DHT22;2294;51.818;8.484;2023-08-01T00:25:51;26.10;99.90
4564;DHT22;2294;51.818;8.484;2023-08-01T00:28:19;26.30;99.90
4564;DHT22;2294;51.818;8.484;2023-08-01T00:30:46;26.20;99.90
4564;DHT22;2294;51.818;8.484;2023-08-01T00:33:13;26.00;99.90
4564;DHT22;2294;51.818;8.484;2023-08-01T00:35:40;26.10;99.90
4564;DHT22;2294;51.818;8.484;2023-08-01T00:38:07;26.20;99.90
4564;DHT22;2294;51.818;8.484;2023-08-01T00:40:34;26.00;99.90
4564;DHT22;2294;51.818;8.484;2023-08-01T00:43:01;26.00;99.90
4564;DHT22;2294;51.818;8.484;2023-08-01T00:45:30;26.10;99.90
4564;DHT22;2294;51.818;8.484;2023-08-01T00:47:57;26.10;99.90
4564;DHT22;2294;51.818;8.484;2023-08-01T00:50:24;26.10;99.90
4564;DHT22;2294;51.818;8.484;2023-08-01T00:52:52;26.10;99.90
4564;DHT22;2294;51.818;8.484;2023-08-01T00:55:19;26.00;99.90
4564;DHT22;2294;51.818;8.484;2023-08-01T00:57:48;25.70;99.90
4564;DHT22;2294;51.818;8.484;2023-08-01T01:00:15;25.90;99.90
4564;DHT22;2294;51.818;8.484;2023-08-01T01:02:43;25.90;99.90
4564;DHT22;2294;51.818;8.484;2023-08-01T01:05:10;25.80;99.90
4564;DHT22;2294;51.818;8.484;2023-08-01T01:07:38;25.70;99.90
4564;DHT22;2294;51.818;8.484;2023-08-01T01:10:06;25.90;99.90
4564;DHT22;2294;51.818;8.484;2023-08-01T01:12:33;26.00;99.90
4564;DHT22;2294;51.818;8.484;2023-08-01T01:15:00;25.90;99.90
4564;DHT22;2294;51.818;8.484;2023-08-01T01:17:27;25.90;99.90
4564;DHT22;2294;51.818;8.484;2023-08-01T01:19:55;25.80;99.90
4564;DHT22;2294;51.818;8.484;2023-08-01T01:22:24;25.80;99.90
4564;DHT22;2294;51.818;8.484;2023-08-01T01:24:52;25.90;99.90
4564;DHT22;2294;51.818;8.484;2023-08-01T01:27:20;25.80;99.90
4564;DHT22;2294;51.818;8.484;2023-08-01T01:29:48;25.90;99.90
4564;DHT22;2294;51.818;8.484;2023-08-01T01:32:16;25.80;99.90
4564;DHT22;2294;51.818;8.484;2023-08-01T01:34:44;25.90;99.90
4564;DHT22;2294;51.818;8.484;2023-08-01T01:37:11;25.90;99.90
4564;DHT22;2294;51.818;8.484;2023-08-01T01:39:40;25.90;99.90
4564;DHT22;2294;51.818;8.484;2023-08-01T01:42:07;25.90;99.90
4564;DHT22;2294;51.818;8.484;2023-08-01T01:44:34;25.90;99.90
4564;DHT22;2294;51.818;8.484;2023-08-01T01:47:01;26.00;99.90
4564;DHT22;2294;51.818;8.484;2023-08-01T01:49:28;25.80;99.90
4564;DHT22;2294;51.818;8.484;2023-08-01T01:51:55;25.90;99.90
4564;DHT22;2294;51.818;8.484;2023-08-01T01:54:22;26.20;99.90
4564;DHT22;2294;51.818;8.484;2023-08-01T01:56:50;26.10;99.90
4564;DHT22;2294;51.818;8.484;2023-08-01T01:59:17;26.10;99.90
4564;DHT22;2294;51.818;8.484;2023-08-01T02:01:44;27.90;99.90
4564;DHT22;2294;51.818;8.484;2023-08-01T02:04:11;26.00;99.90
4564;DHT22;2294;51.818;8.484;2023-08-01T02:06:37;26.00;99.90
4564;DHT22;2294;51.818;8.484;2023-08-01T02:09:04;26.00;99.90
4564;DHT22;2294;51.818;8.484;2023-08-01T02:11:31;26.10;99.90
4564;DHT22;2294;51.818;8.484;2023-08-01T02:13:59;26.00;99.90
4564;DHT22;2294;51.818;8.484;2023-08-01T02:16:27;25.90;99.90
4564;DHT22;2294;51.818;8.484;2023-08-01T02:18:54;25.90;99.90
4564;DHT22;2294;51.818;8.484;2023-08-01T02:21:21;25.90;99.90
4564;DHT22;2294;51.818;8.484;2023-08-01T02:23:48;26.10;99.90
4564;DHT22;2294;51.818;8.484;2023-08-01T02:26:14;26.10;99.90
4564;DHT22;2294;51.818;8.484;2023-08-01T02:28:41;26.10;99.90
4564;DHT22;2294;51.818;8.484;2023-08-01T02:31:10;26.00;99.90
4564;DHT22;2294;51.818;8.484;2023-08-01T02:33:37;26.00;99.90
4564;DHT22;2294;51.818;8.484;2023-08-01T02:36:04;26.00;99.90
4564;DHT22;2294;51.818;8.484;2023-08-01T02:38:31;26.00;99.90
4564;DHT22;2294;51.818;8.484;2023-08-01T02:40:58;26.00;99.90
4564;DHT22;2294;51.818;8.484;2023-08-01T02:43:25;25.90;99.90
4564;DHT22;2294;51.818;8.484;2023-08-01T02:45:52;26.10;99.90
4564;DHT22;2294;51.818;8.484;2023-08-01T02:48:20;26.00;99.90
4564;DHT22;2294;51.818;8.484;2023-08-01T02:50:47;26.00;99.90
4564;DHT22;2294;51.818;8.484;2023-08-01T02:53:14;25.90;99.90
4564;DHT22;2294;51.818;8.484;2023-08-01T02:55:41;26.10;99.90
4564;DHT22;2294;51.818;8.484;2023-08-01T02:58:08;26.00;99.90
4564;DHT22;2294;51.818;8.484;2023-08-01T03:00:37;26.20;99.90
4564;DHT22;2294;51.818;8.484;2023-08-01T03:03:04;26.10;99.90
4564;DHT22;2294;51.818;8.484;2023-08-01T03:05:35;26.00;99.90
4564;DHT22;2294;51.818;8.484;2023-08-01T03:08:03;26.10;99.90
4564;DHT22;2294;51.818;8.484;2023-08-01T03:10:30;26.10;99.90
4564;DHT22;2294;51.818;8.484;2023-08-01T03:12:56;26.10;99.90
4564;DHT22;2294;51.818;8.484;2023-08-01T03:15:23;26.10;99.90
4564;DHT22;2294;51.818;8.484;2023-08-01T03:17:50;26.10;99.90
4564;DHT22;2294;51.818;8.484;2023-08-01T03:20:17;26.20;99.90
4564;DHT22;2294;51.818;8.484;2023-08-01T03:22:45;26.30;99.90
4564;DHT22;2294;51.818;8.484;2023-08-01T03:25:12;26.20;99.90
4564;DHT22;2294;51.818;8.484;2023-08-01T03:27:39;26.20;99.90
4564;DHT22;2294;51.818;8.484;2023-08-01T03:30:07;26.00;99.90
4564;DHT22;2294;51.818;8.484;2023-08-01T03:32:35;26.10;99.90
4564;DHT22;2294;51.818;8.484;2023-08-01T03:35:03;26.10;99.90
4564;DHT22;2294;51.818;8.484;2023-08-01T03:37:30;26.00;99.90
4564;DHT22;2294;51.818;8.484;2023-08-01T03:39:58;26.10;99.90
4564;DHT22;2294;51.818;8.484;2023-08-01T03:42:25;26.10;99.90
4564;DHT22;2294;51.818;8.484;2023-08-01T03:44:52;26.20;99.90
4564;DHT22;2294;51.818;8.484;2023-08-01T03:47:19;26.10;99.90
4564;DHT22;2294;51.818;8.484;2023-08-01T03:49:46;26.20;99.90
4564;DHT22;2294;51.818;8.484;2023-08-01T03:52:13;26.10;99.90
4564;DHT22;2294;51.818;8.484;2023-08-01T03:54:40;26.10;99.90
4564;DHT22;2294;51.818;8.484;2023-08-01T03:57:08;26.20;99.90
4564;DHT22;2294;51.818;8.484;2023-08-01T03:59:36;26.20;99.90
4564;DHT22;2294;51.818;8.484;2023-08-01T04:02:03;26.30;99.90
4564;DHT22;2294;51.818;8.484;2023-08-01T04:04:30;26.30;99.90
4564;DHT22;2294;51.818;8.484;2023-08-01T04:06:57;26.30;99.90
4564;DHT22;2294;51.818;8.484;2023-08-01T04:09:24;26.50;99.90
4564;DHT22;2294;51.818;8.484;2023-08-01T04:11:51;26.30;99.90
4564;DHT22;2294;51.818;8.484;2023-08-01T04:14:19;26.30;99.90
4564;DHT22;2294;51.818;8.484;2023-08-01T04:16:46;26.30;99.90
4564;DHT22;2294;51.818;8.484;2023-08-01T04:19:13;26.20;99.90
4564;DHT22;2294;51.818;8.484;2023-08-01T04:21:40;26.40;99.90
4564;DHT22;2294;51.818;8.484;2023-08-01T04:24:06;26.40;99.90
4564;DHT22;2294;51.818;8.484;2023-08-01T04:26:34;26.40;99.90
4564;DHT22;2294;51.818;8.484;2023-08-01T04:29:02;26.30;99.90
4564;DHT22;2294;51.818;8.484;2023-08-01T04:31:30;26.20;99.90
4564;DHT22;2294;51.818;8.484;2023-08-01T04:33:57;26.30;99.90
4564;DHT22;2294;51.818;8.484;2023-08-01T04:36:24;26.20;99.90
4564;DHT22;2294;51.818;8.484;2023-08-01T04:38:51;26.20;99.90
4564;DHT22;2294;51.818;8.484;2023-08-01T04:41:17;26.40;99.90
4564;DHT22;2294;51.818;8.484;2023-08-01T04:43:44;26.20;99.90
4564;DHT22;2294;51.818;8.484;2023-08-01T04:46:11;26.20;99.90
4564;DHT22;2294;51.818;8.484;2023-08-01T04:48:39;26.30;99.90
4564;DHT22;2294;51.818;8.484;2023-08-01T04:51:06;26.40;99.90
4564;DHT22;2294;51.818;8.484;2023-08-01T04:53:33;26.30;99.90
4564;DHT22;2294;51.818;8.484;2023-08-01T04:56:00;26.20;99.90
4564;DHT22;2294;51.818;8.484;2023-08-01T04:58:27;26.20;99.90
4564;DHT22;2294;51.818;8.484;2023-08-01T05:00:56;26.20;99.90
4564;DHT22;2294;51.818;8.484;2023-08-01T05:03:23;26.10;99.90
4564;DHT22;2294;51.818;8.484;2023-08-01T05:05:51;25.60;99.90
4564;DHT22;2294;51.818;8.484;2023-08-01T05:08:18;26.00;99.90
4564;DHT22;2294;51.818;8.484;2023-08-01T05:10:44;26.20;99.90
4564;DHT22;2294;51.818;8.484;2023-08-01T05:13:11;25.90;99.90
4564;DHT22;2294;51.818;8.484;2023-08-01T05:15:38;26.00;99.90
4564;DHT22;2294;51.818;8.484;2023-08-01T05:18:05;26.00;99.90
4564;DHT22;2294;51.818;8.484;2023-08-01T05:20:32;26.00;99.90
4564;DHT22;2294;51.818;8.484;2023-08-01T05:23:01;26.00;99.90
4564;DHT22;2294;51.818;8.484;2023-08-01T05:25:28;26.00;99.90
4564;DHT22;2294;51.818;8.484;2023-08-01T05:27:55;26.10;99.90
4564;DHT22;2294;51.818;8.484;2023-08-01T05:30:22;26.10;99.90
4564;DHT22;2294;51.818;8.484;2023-08-01T05:32:48;26.00;99.90
4564;DHT22;2294;51.818;8.484;2023-08-01T05:35:15;25.80;99.90
4564;DHT22;2294;51.818;8.484;2023-08-01T05:37:42;25.90;99.90
4564;DHT22;2294;51.818;8.484;2023-08-01T05:40:12;25.60;99.90
4564;DHT22;2294;51.818;8.484;2023-08-01T05:42:38;25.70;99.90
4564;DHT22;2294;51.818;8.484;2023-08-01T05:45:06;25.50;99.90
4564;DHT22;2294;51.818;8.484;2023-08-01T05:47:33;25.20;99.90
4564;DHT22;2294;51.818;8.484;2023-08-01T05:50:02;25.20;99.90
4564;DHT22;2294;51.818;8.484;2023-08-01T05:52:30;24.90;99.90
4564;DHT22;2294;51.818;8.484;2023-08-01T05:54:57;24.70;99.90
4564;DHT22;2294;51.818;8.484;2023-08-01T05:57:25;24.60;99.90
4564;DHT22;2294;51.818;8.484;2023-08-01T05:59:52;24.50;99.90
4564;DHT22;2294;51.818;8.484;2023-08-01T06:02:19;24.50;99.90
4564;DHT22;2294;51.818;8.484;2023-08-01T06:04:46;24.40;99.90
4564;DHT22;2294;51.818;8.484;2023-08-01T06:07:13;24.40;99.90
4564;DHT22;2294;51.818;8.484;2023-08-01T06:09:39;24.30;99.90
4564;DHT22;2294;51.818;8.484;2023-08-01T06:12:07;24.30;99.90
4564;DHT22;2294;51.818;8.484;2023-08-01T06:14:35;24.00;99.90
4564;DHT22;2294;51.818;8.484;2023-08-01T06:17:02;23.90;99.90
4564;DHT22;2294;51.818;8.484;2023-08-01T06:19:29;24.00;99.90
4564;DHT22;2294;51.818;8.484;2023-08-01T06:21:56;24.10;99.90
4564;DHT22;2294;51.818;8.484;2023-08-01T06:24:23;24.20;99.90
4564;DHT22;2294;51.818;8.484;2023-08-01T06:26:49;24.10;99.90
4564;DHT22;2294;51.818;8.484;2023-08-01T06:29:16;24.30;99.90
4564;DHT22;2294;51.818;8.484;2023-08-01T06:31:44;24.30;99.90
4564;DHT22;2294;51.818;8.484;2023-08-01T06:34:11;24.30;99.90
4564;DHT22;2294;51.818;8.484;2023-08-01T06:36:38;24.70;99.90
4564;DHT22;2294;51.818;8.484;2023-08-01T06:39:05;25.00;99.90
4564;DHT22;2294;51.818;8.484;2023-08-01T06:41:32;24.50;99.90
4564;DHT22;2294;51.818;8.484;2023-08-01T06:43:59;24.50;99.90
4564;DHT22;2294;51.818;8.484;2023-08-01T06:46:26;24.40;99.90
4564;DHT22;2294;51.818;8.484;2023-08-01T06:48:55;24.00;99.90
4564;DHT22;2294;51.818;8.484;2023-08-01T06:51:21;24.00;99.90
4564;DHT22;2294;51.818;8.484;2023-08-01T06:53:48;24.00;99.90
4564;DHT22;2294;51.818;8.484;2023-08-01T06:56:15;23.80;99.90
4564;DHT22;2294;51.818;8.484;2023-08-01T06:58:42;23.70;99.90
4564;DHT22;2294;51.818;8.484;2023-08-01T07:01:09;23.80;99.90
4564;DHT22;2294;51.818;8.484;2023-08-01T07:03:36;23.70;99.90
4564;DHT22;2294;51.818;8.484;2023-08-01T07:06:04;23.40;99.90
4564;DHT22;2294;51.818;8.484;2023-08-01T07:08:31;23.30;99.90
4564;DHT22;2294;51.818;8.484;2023-08-01T07:10:59;23.30;99.90
4564;DHT22;2294;51.818;8.484;2023-08-01T07:13:25;23.10;99.90
4564;DHT22;2294;51.818;8.484;2023-08-01T07:15:52;23.00;99.90
4564;DHT22;2294;51.818;8.484;2023-08-01T07:18:20;22.90;99.90
4564;DHT22;2294;51.818;8.484;2023-08-01T07:20:47;22.90;99.90
4564;DHT22;2294;51.818;8.484;2023-08-01T07:23:15;22.90;99.90
4564;DHT22;2294;51.818;8.484;2023-08-01T07:25:42;23.10;99.90
4564;DHT22;2294;51.818;8.484;2023-08-01T07:28:09;23.10;99.90
4564;DHT22;2294;51.818;8.484;2023-08-01T07:30:35;23.10;99.90
4564;DHT22;2294;51.818;8.484;2023-08-01T07:33:02;23.40;99.90
4564;DHT22;2294;51.818;8.484;2023-08-01T07:35:29;23.40;99.90
4564;DHT22;2294;51.818;8.484;2023-08-01T07:37:56;23.50;99.90
4564;DHT22;2294;51.818;8.484;2023-08-01T07:40:24;23.40;99.90
4564;DHT22;2294;51.818;8.484;2023-08-01T07:42:51;23.30;99.90
4564;DHT22;2294;51.818;8.484;2023-08-01T07:45:18;23.40;99.90
4564;DHT22;2294;51.818;8.484;2023-08-01T07:47:45;23.30;99.90
4564;DHT22;2294;51.818;8.484;2023-08-01T07:50:12;23.80;99.90
4564;DHT22;2294;51.818;8.484;2023-08-01T07:52:39;23.60;99.90
4564;DHT22;2294;51.818;8.484;2023-08-01T07:55:07;23.60;99.90
4564;DHT22;2294;51.818;8.484;2023-08-01T07:57:35;23.30;99.90
4564;DHT22;2294;51.818;8.484;2023-08-01T08:00:02;23.70;99.90
4564;DHT22;2294;51.818;8.484;2023-08-01T08:02:29;23.10;99.90
4564;DHT22;2294;51.818;8.484;2023-08-01T08:04:56;23.10;99.90
4564;DHT22;2294;51.818;8.484;2023-08-01T08:07:23;22.70;99.90
4564;DHT22;2294;51.818;8.484;2023-08-01T08:09:50;22.60;99.90
4564;DHT22;2294;51.818;8.484;2023-08-01T08:12:20;22.90;99.90
4564;DHT22;2294;51.818;8.484;2023-08-01T08:14:48;22.80;99.90
4564;DHT22;2294;51.818;8.484;2023-08-01T08:17:15;22.60;99.90
4564;DHT22;2294;51.818;8.484;2023-08-01T08:19:42;22.70;99.90
4564;DHT22;2294;51.818;8.484;2023-08-01T08:22:09;22.50;99.90
4564;DHT22;2294;51.818;8.484;2023-08-01T08:24:36;22.80;99.90
4564;DHT22;2294;51.818;8.484;2023-08-01T08:27:03;23.00;99.90
4564;DHT22;2294;51.818;8.484;2023-08-01T08:29:31;23.50;99.90
4564;DHT22;2294;51.818;8.484;2023-08-01T08:32:00;23.00;99.90
4564;DHT22;2294;51.818;8.484;2023-08-01T08:34:27;22.90;99.90
4564;DHT22;2294;51.818;8.484;2023-08-01T08:36:53;22.50;99.90
4564;DHT22;2294;51.818;8.484;2023-08-01T08:39:20;22.10;99.90
4564;DHT22;2294;51.818;8.484;2023-08-01T08:41:48;21.90;99.90
4564;DHT22;2294;51.818;8.484;2023-08-01T08:44:16;21.80;99.90
4564;DHT22;2294;51.818;8.484;2023-08-01T08:46:45;21.70;99.90
4564;DHT22;2294;51.818;8.484;2023-08-01T08:49:15;22.00;99.90
4564;DHT22;2294;51.818;8.484;2023-08-01T08:51:44;22.00;99.90
4564;DHT22;2294;51.818;8.484;2023-08-01T08:54:11;22.20;99.90
4564;DHT22;2294;51.818;8.484;2023-08-01T08:56:40;22.30;99.90
4564;DHT22;2294;51.818;8.484;2023-08-01T08:59:07;22.20;99.90
4564;DHT22;2294;51.818;8.484;2023-08-01T09:01:35;22.60;99.90
4564;DHT22;2294;51.818;8.484;2023-08-01T09:04:02;22.90;99.90
4564;DHT22;2294;51.818;8.484;2023-08-01T09:06:32;22.90;99.90
4564;DHT22;2294;51.818;8.484;2023-08-01T09:09:02;22.80;99.90
4564;DHT22;2294;51.818;8.484;2023-08-01T09:11:39;22.50;99.90
4564;DHT22;2294;51.818;8.484;2023-08-01T09:14:07;23.00;99.90
4564;DHT22;2294;51.818;8.484;2023-08-01T09:16:34;24.40;99.90
4564;DHT22;2294;51.818;8.484;2023-08-01T09:19:02;23.60;99.90
4564;DHT22;2294;51.818;8.484;2023-08-01T09:21:33;23.00;99.90
4564;DHT22;2294;51.818;8.484;2023-08-01T09:24:08;22.50;99.90
4564;DHT22;2294;51.818;8.484;2023-08-01T09:26:35;22.60;99.90
4564;DHT22;2294;51.818;8.484;2023-08-01T09:29:02;22.30;99.90
4564;DHT22;2294;51.818;8.484;2023-08-01T09:31:30;22.20;99.90
4564;DHT22;2294;51.818;8.484;2023-08-01T09:33:57;22.40;99.90
4564;DHT22;2294;51.818;8.484;2023-08-01T09:36:24;22.20;99.90
4564;DHT22;2294;51.818;8.484;2023-08-01T09:38:58;22.10;99.90
4564;DHT22;2294;51.818;8.484;2023-08-01T09:41:25;22.40;99.90
4564;DHT22;2294;51.818;8.484;2023-08-01T09:43:52;22.20;99.90
4564;DHT22;2294;51.818;8.484;2023-08-01T09:46:19;22.40;99.90
4564;DHT22;2294;51.818;8.484;2023-08-01T09:48:46;22.20;99.90
4564;DHT22;2294;51.818;8.484;2023-08-01T09:51:14;21.90;99.90
4564;DHT22;2294;51.818;8.484;2023-08-01T09:53:50;21.80;99.90
4564;DHT22;2294;51.818;8.484;2023-08-01T09:56:21;21.70;99.90
4564;DHT22;2294;51.818;8.484;2023-08-01T09:58:49;21.40;99.90
4564;DHT22;2294;51.818;8.484;2023-08-01T10:01:18;21.10;99.90
4564;DHT22;2294;51.818;8.484;2023-08-01T10:03:47;21.10;99.90
4564;DHT22;2294;51.818;8.484;2023-08-01T10:06:18;21.20;99.90
4564;DHT22;2294;51.818;8.484;2023-08-01T10:08:46;20.80;99.90
4564;DHT22;2294;51.818;8.484;2023-08-01T10:11:14;20.70;99.90
4564;DHT22;2294;51.818;8.484;2023-08-01T10:13:43;21.10;99.90
4564;DHT22;2294;51.818;8.484;2023-08-01T10:16:11;21.10;99.90
4564;DHT22;2294;51.818;8.484;2023-08-01T10:18:39;21.90;99.90
4564;DHT22;2294;51.818;8.484;2023-08-01T10:21:06;21.60;99.90
4564;DHT22;2294;51.818;8.484;2023-08-01T10:23:34;21.20;99.90
4564;DHT22;2294;51.818;8.484;2023-08-01T10:26:05;20.80;99.90
4564;DHT22;2294;51.818;8.484;2023-08-01T10:28:32;21.00;99.90
4564;DHT22;2294;51.818;8.484;2023-08-01T10:31:12;20.80;99.90
4564;DHT22;2294;51.818;8.484;2023-08-01T10:33:41;20.60;99.90
4564;DHT22;2294;51.818;8.484;2023-08-01T10:36:15;21.10;99.90
4564;DHT22;2294;51.818;8.484;2023-08-01T10:38:49;21.10;99.90
4564;DHT22;2294;51.818;8.484;2023-08-01T10:41:20;21.50;99.90
4564;DHT22;2294;51.818;8.484;2023-08-01T10:43:47;21.60;99.90
4564;DHT22;2294;51.818;8.484;2023-08-01T10:46:16;20.80;99.90
4564;DHT22;2294;51.818;8.484;2023-08-01T10:48:50;20.80;99.90
4564;DHT22;2294;51.818;8.484;2023-08-01T10:51:17;21.20;99.90
4564;DHT22;2294;51.818;8.484;2023-08-01T10:53:44;21.30;99.90
4564;DHT22;2294;51.818;8.484;2023-08-01T10:56:19;21.10;99.90
4564;DHT22;2294;51.818;8.484;2023-08-01T10:58:47;21.40;99.90
4564;DHT22;2294;51.818;8.484;2023-08-01T11:01:13;21.60;99.90
4564;DHT22;2294;51.818;8.484;2023-08-01T11:03:42;22.20;99.90
4564;DHT22;2294;51.818;8.484;2023-08-01T11:06:10;21.90;99.90
4564;DHT22;2294;51.818;8.484;2023-08-01T11:08:37;21.00;99.90
4564;DHT22;2294;51.818;8.484;2023-08-01T11:11:10;20.20;99.90
4564;DHT22;2294;51.818;8.484;2023-08-01T11:13:37;20.10;99.90
4564;DHT22;2294;51.818;8.484;2023-08-01T11:16:04;19.60;99.90
4564;DHT22;2294;51.818;8.484;2023-08-01T11:18:42;19.40;99.90
4564;DHT22;2294;51.818;8.484;2023-08-01T11:21:10;19.40;99.90
4564;DHT22;2294;51.818;8.484;2023-08-01T11:23:37;19.30;99.90
4564;DHT22;2294;51.818;8.484;2023-08-01T11:26:07;19.40;99.90
4564;DHT22;2294;51.818;8.484;2023-08-01T11:28:35;19.60;99.90
4564;DHT22;2294;51.818;8.484;2023-08-01T11:31:10;19.70;99.90
4564;DHT22;2294;51.818;8.484;2023-08-01T11:33:37;19.70;99.90
4564;DHT22;2294;51.818;8.484;2023-08-01T11:36:05;20.00;99.90
4564;DHT22;2294;51.818;8.484;2023-08-01T11:38:33;20.30;99.90
4564;DHT22;2294;51.818;8.484;2023-08-01T11:41:01;20.70;99.90
4564;DHT22;2294;51.818;8.484;2023-08-01T11:43:38;21.00;99.90
4564;DHT22;2294;51.818;8.484;2023-08-01T11:46:05;21.20;99.90
4564;DHT22;2294;51.818;8.484;2023-08-01T11:48:32;21.50;99.90
4564;DHT22;2294;51.818;8.484;2023-08-01T11:50:58;21.40;99.90
4564;DHT22;2294;51.818;8.484;2023-08-01T11:53:27;22.20;99.90
4564;DHT22;2294;51.818;8.484;2023-08-01T11:55:55;22.30;99.90
4564;DHT22;2294;51.818;8.484;2023-08-01T11:58:30;22.10;99.90
4564;DHT22;2294;51.818;8.484;2023-08-01T12:01:09;21.80;99.90
4564;DHT22;2294;51.818;8.484;2023-08-01T12:03:44;21.30;99.90
4564;DHT22;2294;51.818;8.484;2023-08-01T12:06:11;21.50;99.90
4564;DHT22;2294;51.818;8.484;2023-08-01T12:08:41;21.30;99.90
4564;DHT22;2294;51.818;8.484;2023-08-01T12:11:18;21.20;99.90
4564;DHT22;2294;51.818;8.484;2023-08-01T12:13:45;21.30;99.90
4564;DHT22;2294;51.818;8.484;2023-08-01T12:16:12;21.70;99.90
4564;DHT22;2294;51.818;8.484;2023-08-01T12:18:41;21.60;99.90
4564;DHT22;2294;51.818;8.484;2023-08-01T12:21:10;21.00;99.90
4564;DHT22;2294;51.818;8.484;2023-08-01T12:23:37;21.10;99.90
4564;DHT22;2294;51.818;8.484;2023-08-01T12:26:06;21.30;99.90
4564;DHT22;2294;51.818;8.484;2023-08-01T12:28:33;21.10;99.90
4564;DHT22;2294;51.818;8.484;2023-08-01T12:31:00;21.60;99.90
4564;DHT22;2294;51.818;8.484;2023-08-01T12:33:27;22.10;99.90
4564;DHT22;2294;51.818;8.484;2023-08-01T12:35:54;21.40;99.90
4564;DHT22;2294;51.818;8.484;2023-08-01T12:38:21;21.60;99.90
4564;DHT22;2294;51.818;8.484;2023-08-01T12:40:48;21.30;99.90
4564;DHT22;2294;51.818;8.484;2023-08-01T12:43:16;21.60;99.90
4564;DHT22;2294;51.818;8.484;2023-08-01T12:45:45;21.40;99.90
4564;DHT22;2294;51.818;8.484;2023-08-01T12:48:12;21.10;99.90
4564;DHT22;2294;51.818;8.484;2023-08-01T12:50:43;21.30;99.90
4564;DHT22;2294;51.818;8.484;2023-08-01T12:53:10;21.00;99.90
4564;DHT22;2294;51.818;8.484;2023-08-01T12:55:37;21.40;99.90
4564;DHT22;2294;51.818;8.484;2023-08-01T12:58:04;21.90;99.90
4564;DHT22;2294;51.818;8.484;2023-08-01T13:00:32;21.60;99.90
4564;DHT22;2294;51.818;8.484;2023-08-01T13:02:59;20.90;99.90
4564;DHT22;2294;51.818;8.484;2023-08-01T13:05:26;20.50;99.90
4564;DHT22;2294;51.818;8.484;2023-08-01T13:07:53;20.20;99.90
4564;DHT22;2294;51.818;8.484;2023-08-01T13:10:20;20.30;99.90
4564;DHT22;2294;51.818;8.484;2023-08-01T13:12:47;20.00;99.90
4564;DHT22;2294;51.818;8.484;2023-08-01T13:15:14;20.20;99.90
4564;DHT22;2294;51.818;8.484;2023-08-01T13:17:42;21.20;99.90
4564;DHT22;2294;51.818;8.484;2023-08-01T13:20:09;21.70;99.90
4564;DHT22;2294;51.818;8.484;2023-08-01T13:22:36;21.60;99.90
4564;DHT22;2294;51.818;8.484;2023-08-01T13:25:04;21.60;99.90
4564;DHT22;2294;51.818;8.484;2023-08-01T13:29:59;20.90;99.90
4564;DHT22;2294;51.818;8.484;2023-08-01T13:32:26;20.50;99.90
4564;DHT22;2294;51.818;8.484;2023-08-01T13:34:54;20.80;99.90
4564;DHT22;2294;51.818;8.484;2023-08-01T13:37:21;21.20;99.90
4564;DHT22;2294;51.818;8.484;2023-08-01T13:39:48;21.20;99.90
4564;DHT22;2294;51.818;8.484;2023-08-01T13:42:15;21.50;99.90
4564;DHT22;2294;51.818;8.484;2023-08-01T13:44:42;22.10;99.90
4564;DHT22;2294;51.818;8.484;2023-08-01T13:47:10;21.70;99.90
4564;DHT22;2294;51.818;8.484;2023-08-01T13:49:37;21.10;99.90
4564;DHT22;2294;51.818;8.484;2023-08-01T13:52:06;20.80;99.90
4564;DHT22;2294;51.818;8.484;2023-08-01T13:54:33;20.70;99.90
4564;DHT22;2294;51.818;8.484;2023-08-01T13:57:00;20.60;99.90
4564;DHT22;2294;51.818;8.484;2023-08-01T13:59:26;20.70;99.90
4564;DHT22;2294;51.818;8.484;2023-08-01T14:01:53;20.80;99.90
4564;DHT22;2294;51.818;8.484;2023-08-01T14:04:20;20.50;99.90
4564;DHT22;2294;51.818;8.484;2023-08-01T14:06:47;20.60;99.90
4564;DHT22;2294;51.818;8.484;2023-08-01T14:09:15;20.60;99.90
4564;DHT22;2294;51.818;8.484;2023-08-01T14:11:42;20.90;99.90
4564;DHT22;2294;51.818;8.484;2023-08-01T14:14:09;21.10;99.90
4564;DHT22;2294;51.818;8.484;2023-08-01T14:16:36;21.40;99.90
4564;DHT22;2294;51.818;8.484;2023-08-01T14:19:03;20.90;99.90
4564;DHT22;2294;51.818;8.484;2023-08-01T14:21:33;20.80;99.90
4564;DHT22;2294;51.818;8.484;2023-08-01T14:23:59;22.20;99.90
4564;DHT22;2294;51.818;8.484;2023-08-01T14:26:28;24.60;99.90
4564;DHT22;2294;51.818;8.484;2023-08-01T14:28:54;23.70;99.90
4564;DHT22;2294;51.818;8.484;2023-08-01T14:31:21;24.20;99.90
4564;DHT22;2294;51.818;8.484;2023-08-01T14:33:48;23.10;1.00
4564;DHT22;2294;51.818;8.484;2023-08-01T14:36:15;23.10;1.00
4564;DHT22;2294;51.818;8.484;2023-08-01T14:38:42;22.00;1.00
4564;DHT22;2294;51.818;8.484;2023-08-01T14:41:09;22.60;99.90
4564;DHT22;2294;51.818;8.484;2023-08-01T14:43:37;22.70;99.90
4564;DHT22;2294;51.818;8.484;2023-08-01T14:46:04;22.30;99.90
4564;DHT22;2294;51.818;8.484;2023-08-01T14:48:30;22.20;99.90
4564;DHT22;2294;51.818;8.484;2023-08-01T14:50:57;22.30;99.90
4564;DHT22;2294;51.818;8.484;2023-08-01T14:53:24;23.20;99.90
4564;DHT22;2294;51.818;8.484;2023-08-01T14:55:57;23.20;99.90
4564;DHT22;2294;51.818;8.484;2023-08-01T14:58:25;22.10;99.90
4564;DHT22;2294;51.818;8.484;2023-08-01T15:00:55;22.40;99.90
4564;DHT22;2294;51.818;8.484;2023-08-01T15:05:49;23.20;1.00
4564;DHT22;2294;51.818;8.484;2023-08-01T15:08:16;21.90;99.90
4564;DHT22;2294;51.818;8.484;2023-08-01T15:10:43;21.70;99.90
4564;DHT22;2294;51.818;8.484;2023-08-01T15:13:10;21.30;99.90
4564;DHT22;2294;51.818;8.484;2023-08-01T15:15:36;20.90;99.90
4564;DHT22;2294;51.818;8.484;2023-08-01T15:18:05;20.80;99.90
4564;DHT22;2294;51.818;8.484;2023-08-01T15:20:32;20.80;99.90
4564;DHT22;2294;51.818;8.484;2023-08-01T15:23:03;20.80;99.90
4564;DHT22;2294;51.818;8.484;2023-08-01T15:25:30;21.00;99.90
4564;DHT22;2294;51.818;8.484;2023-08-01T16:12:13;23.50;99.90
4564;DHT22;2294;51.818;8.484;2023-08-01T16:14:40;21.90;99.90
4564;DHT22;2294;51.818;8.484;2023-08-01T16:17:07;22.00;99.90
4564;DHT22;2294;51.818;8.484;2023-08-01T16:24:28;26.70;99.90
4564;DHT22;2294;51.818;8.484;2023-08-01T17:16:03;21.30;1.00
4564;DHT22;2294;51.818;8.484;2023-08-01T17:18:31;20.70;1.00
4564;DHT22;2294;51.818;8.484;2023-08-01T17:20:59;21.00;1.00
4564;DHT22;2294;51.818;8.484;2023-08-01T17:25:54;20.70;99.90
4564;DHT22;2294;51.818;8.484;2023-08-01T17:28:21;20.90;65.20
4564;DHT22;2294;51.818;8.484;2023-08-01T17:30:47;20.50;1.00
4564;DHT22;2294;51.818;8.484;2023-08-01T17:33:16;19.90;1.00
4564;DHT22;2294;51.818;8.484;2023-08-01T17:35:44;19.90;99.90
4564;DHT22;2294;51.818;8.484;2023-08-01T17:38:12;20.00;99.90
4564;DHT22;2294;51.818;8.484;2023-08-01T17:40:42;20.20;99.90
4564;DHT22;2294;51.818;8.484;2023-08-01T17:43:09;20.20;99.90
4564;DHT22;2294;51.818;8.484;2023-08-01T17:45:37;20.40;99.90
4564;DHT22;2294;51.818;8.484;2023-08-01T17:48:04;20.30;99.90
4564;DHT22;2294;51.818;8.484;2023-08-01T17:50:31;20.30;99.90